sensor_id;sensor_type;location;lat;lon;timestamp;P1;durP1;ratioP1;P2;durP2;ratioP2
52554;SDS011;38455;52.710;6.502;2023-05-10T00:00:27;17.63;;;10.65;;
52554;SDS011;38455;52.710;6.502;2023-05-10T00:02:53;12.65;;;10.45;;
52554;SDS011;38455;52.710;6.502;2023-05-10T00:05:19;14.55;;;10.95;;
52554;SDS011;38455;52.710;6.502;2023-05-10T00:07:44;16.23;;;11.57;;
52554;SDS011;38455;52.710;6.502;2023-05-10T00:10:10;14.13;;;11.30;;
52554;SDS011;38455;52.710;6.502;2023-05-10T00:12:36;16.85;;;12.57;;
52554;SDS011;38455;52.710;6.502;2023-05-10T00:15:02;15.95;;;12.48;;
52554;SDS011;38455;52.710;6.502;2023-05-10T00:17:28;17.80;;;12.18;;
52554;SDS011;38455;52.710;6.502;2023-05-10T00:19:53;16.98;;;13.23;;
52554;SDS011;38455;52.710;6.502;2023-05-10T00:22:19;16.60;;;12.90;;
52554;SDS011;38455;52.710;6.502;2023-05-10T00:24:45;16.10;;;12.57;;
52554;SDS011;38455;52.710;6.502;2023-05-10T00:27:11;17.85;;;13.35;;
52554;SDS011;38455;52.710;6.502;2023-05-10T00:29:36;17.13;;;12.02;;
52554;SDS011;38455;52.710;6.502;2023-05-10T00:32:02;18.75;;;13.32;;
52554;SDS011;38455;52.710;6.502;2023-05-10T00:34:28;15.95;;;12.13;;
52554;SDS011;38455;52.710;6.502;2023-05-10T00:36:54;16.40;;;11.95;;
52554;SDS011;38455;52.710;6.502;2023-05-10T00:39:19;17.15;;;12.82;;
52554;SDS011;38455;52.710;6.502;2023-05-10T00:41:45;17.75;;;12.43;;
52554;SDS011;38455;52.710;6.502;2023-05-10T00:44:11;15.45;;;11.52;;
52554;SDS011;38455;52.710;6.502;2023-05-10T00:46:36;15.95;;;10.88;;
52554;SDS011;38455;52.710;6.502;2023-05-10T00:49:02;17.60;;;11.93;;
52554;SDS011;38455;52.710;6.502;2023-05-10T00:51:29;14.77;;;11.00;;
52554;SDS011;38455;52.710;6.502;2023-05-10T00:53:56;14.40;;;11.15;;
52554;SDS011;38455;52.710;6.502;2023-05-10T00:56:22;13.93;;;10.85;;
52554;SDS011;38455;52.710;6.502;2023-05-10T00:58:49;17.45;;;11.85;;
52554;SDS011;38455;52.710;6.502;2023-05-10T01:01:15;14.82;;;11.43;;
52554;SDS011;38455;52.710;6.502;2023-05-10T01:03:42;16.50;;;11.82;;
52554;SDS011;38455;52.710;6.502;2023-05-10T01:06:08;15.98;;;11.13;;
52554;SDS011;38455;52.710;6.502;2023-05-10T01:08:35;15.93;;;11.13;;
52554;SDS011;38455;52.710;6.502;2023-05-10T01:11:01;13.60;;;10.27;;
52554;SDS011;38455;52.710;6.502;2023-05-10T01:13:34;14.05;;;10.15;;
52554;SDS011;38455;52.710;6.502;2023-05-10T01:16:02;15.50;;;9.63;;
52554;SDS011;38455;52.710;6.502;2023-05-10T01:18:29;17.08;;;11.25;;
52554;SDS011;38455;52.710;6.502;2023-05-10T01:24:09;15.40;;;10.73;;
52554;SDS011;38455;52.710;6.502;2023-05-10T01:32:57;13.77;;;9.05;;
52554;SDS011;38455;52.710;6.502;2023-05-10T01:43:22;11.43;;;8.30;;
52554;SDS011;38455;52.710;6.502;2023-05-10T01:48:26;15.45;;;9.25;;
52554;SDS011;38455;52.710;6.502;2023-05-10T01:50:53;10.13;;;8.00;;
52554;SDS011;38455;52.710;6.502;2023-05-10T01:53:21;13.07;;;9.00;;
52554;SDS011;38455;52.710;6.502;2023-05-10T01:55:49;14.93;;;8.55;;
52554;SDS011;38455;52.710;6.502;2023-05-10T01:58:25;10.73;;;8.07;;
52554;SDS011;38455;52.710;6.502;2023-05-10T02:00:54;10.75;;;8.07;;
52554;SDS011;38455;52.710;6.502;2023-05-10T02:03:23;12.98;;;8.23;;
52554;SDS011;38455;52.710;6.502;2023-05-10T02:05:50;12.05;;;7.75;;
52554;SDS011;38455;52.710;6.502;2023-05-10T02:08:18;18.63;;;8.43;;
52554;SDS011;38455;52.710;6.502;2023-05-10T02:10:45;11.65;;;8.25;;
52554;SDS011;38455;52.710;6.502;2023-05-10T02:13:12;10.38;;;7.53;;
52554;SDS011;38455;52.710;6.502;2023-05-10T02:15:40;11.27;;;8.00;;
52554;SDS011;38455;52.710;6.502;2023-05-10T02:18:07;12.02;;;8.68;;
52554;SDS011;38455;52.710;6.502;2023-05-10T02:20:35;10.32;;;6.60;;
52554;SDS011;38455;52.710;6.502;2023-05-10T02:23:03;10.10;;;7.35;;
52554;SDS011;38455;52.710;6.502;2023-05-10T02:25:29;10.70;;;7.22;;
52554;SDS011;38455;52.710;6.502;2023-05-10T02:27:56;10.48;;;7.32;;
52554;SDS011;38455;52.710;6.502;2023-05-10T02:30:25;12.75;;;7.18;;
52554;SDS011;38455;52.710;6.502;2023-05-10T02:32:51;9.80;;;6.72;;
52554;SDS011;38455;52.710;6.502;2023-05-10T02:35:17;9.10;;;6.68;;
52554;SDS011;38455;52.710;6.502;2023-05-10T02:37:44;10.65;;;7.20;;
52554;SDS011;38455;52.710;6.502;2023-05-10T02:40:11;11.10;;;6.55;;
52554;SDS011;38455;52.710;6.502;2023-05-10T02:42:39;8.85;;;6.75;;
52554;SDS011;38455;52.710;6.502;2023-05-10T02:45:10;7.35;;;5.97;;
52554;SDS011;38455;52.710;6.502;2023-05-10T02:47:38;9.90;;;7.32;;
52554;SDS011;38455;52.710;6.502;2023-05-10T02:50:04;8.98;;;5.93;;
52554;SDS011;38455;52.710;6.502;2023-05-10T02:52:36;13.45;;;8.13;;
52554;SDS011;38455;52.710;6.502;2023-05-10T02:55:16;8.65;;;6.20;;
52554;SDS011;38455;52.710;6.502;2023-05-10T02:57:48;9.15;;;6.50;;
52554;SDS011;38455;52.710;6.502;2023-05-10T03:00:17;10.77;;;7.05;;
52554;SDS011;38455;52.710;6.502;2023-05-10T03:02:43;9.20;;;6.80;;
52554;SDS011;38455;52.710;6.502;2023-05-10T03:05:08;9.90;;;7.20;;
52554;SDS011;38455;52.710;6.502;2023-05-10T03:07:34;10.98;;;7.07;;
52554;SDS011;38455;52.710;6.502;2023-05-10T03:10:00;7.88;;;6.60;;
52554;SDS011;38455;52.710;6.502;2023-05-10T03:15:12;11.15;;;6.68;;
52554;SDS011;38455;52.710;6.502;2023-05-10T03:18:18;13.68;;;7.15;;
52554;SDS011;38455;52.710;6.502;2023-05-10T03:20:48;12.68;;;8.10;;
52554;SDS011;38455;52.710;6.502;2023-05-10T03:25:48;11.02;;;8.00;;
52554;SDS011;38455;52.710;6.502;2023-05-10T03:28:15;12.55;;;7.50;;
52554;SDS011;38455;52.710;6.502;2023-05-10T03:30:42;11.25;;;7.57;;
52554;SDS011;38455;52.710;6.502;2023-05-10T03:33:09;9.75;;;7.50;;
52554;SDS011;38455;52.710;6.502;2023-05-10T03:35:35;11.02;;;8.32;;
52554;SDS011;38455;52.710;6.502;2023-05-10T03:38:01;11.13;;;7.43;;
52554;SDS011;38455;52.710;6.502;2023-05-10T03:40:27;12.13;;;7.93;;
52554;SDS011;38455;52.710;6.502;2023-05-10T03:43:00;11.15;;;6.63;;
52554;SDS011;38455;52.710;6.502;2023-05-10T03:45:25;12.63;;;8.23;;
52554;SDS011;38455;52.710;6.502;2023-05-10T03:47:51;12.98;;;8.40;;
52554;SDS011;38455;52.710;6.502;2023-05-10T03:50:17;12.90;;;7.63;;
52554;SDS011;38455;52.710;6.502;2023-05-10T03:52:43;10.20;;;7.88;;
52554;SDS011;38455;52.710;6.502;2023-05-10T03:55:09;11.68;;;8.07;;
52554;SDS011;38455;52.710;6.502;2023-05-10T03:57:35;11.05;;;8.95;;
52554;SDS011;38455;52.710;6.502;2023-05-10T04:00:01;19.30;;;9.18;;
52554;SDS011;38455;52.710;6.502;2023-05-10T04:02:28;10.90;;;7.82;;
52554;SDS011;38455;52.710;6.502;2023-05-10T04:04:54;16.25;;;10.10;;
52554;SDS011;38455;52.710;6.502;2023-05-10T04:07:20;14.07;;;9.43;;
52554;SDS011;38455;52.710;6.502;2023-05-10T04:09:46;12.40;;;8.20;;
52554;SDS011;38455;52.710;6.502;2023-05-10T04:12:12;17.25;;;8.95;;
52554;SDS011;38455;52.710;6.502;2023-05-10T04:14:37;13.90;;;8.50;;
52554;SDS011;38455;52.710;6.502;2023-05-10T04:17:03;12.27;;;8.05;;
52554;SDS011;38455;52.710;6.502;2023-05-10T04:19:32;12.45;;;9.20;;
52554;SDS011;38455;52.710;6.502;2023-05-10T04:21:58;11.80;;;8.02;;
52554;SDS011;38455;52.710;6.502;2023-05-10T04:24:24;14.23;;;7.78;;
52554;SDS011;38455;52.710;6.502;2023-05-10T04:26:50;14.75;;;8.60;;
52554;SDS011;38455;52.710;6.502;2023-05-10T04:29:16;12.63;;;8.02;;
52554;SDS011;38455;52.710;6.502;2023-05-10T04:31:41;12.38;;;6.78;;
52554;SDS011;38455;52.710;6.502;2023-05-10T04:34:07;13.20;;;8.15;;
52554;SDS011;38455;52.710;6.502;2023-05-10T04:36:33;14.32;;;7.32;;
52554;SDS011;38455;52.710;6.502;2023-05-10T04:39:00;12.20;;;7.05;;
52554;SDS011;38455;52.710;6.502;2023-05-10T04:41:27;11.20;;;7.25;;
52554;SDS011;38455;52.710;6.502;2023-05-10T04:43:53;12.90;;;7.35;;
52554;SDS011;38455;52.710;6.502;2023-05-10T04:46:19;13.05;;;7.13;;
52554;SDS011;38455;52.710;6.502;2023-05-10T04:48:44;11.13;;;7.57;;
52554;SDS011;38455;52.710;6.502;2023-05-10T04:51:10;12.23;;;7.30;;
52554;SDS011;38455;52.710;6.502;2023-05-10T04:53:36;11.13;;;7.05;;
52554;SDS011;38455;52.710;6.502;2023-05-10T04:56:02;10.98;;;7.43;;
52554;SDS011;38455;52.710;6.502;2023-05-10T04:58:27;12.25;;;7.22;;
52554;SDS011;38455;52.710;6.502;2023-05-10T05:00:53;10.35;;;6.97;;
52554;SDS011;38455;52.710;6.502;2023-05-10T05:03:19;12.20;;;6.82;;
52554;SDS011;38455;52.710;6.502;2023-05-10T05:05:44;12.57;;;7.10;;
52554;SDS011;38455;52.710;6.502;2023-05-10T05:08:10;12.77;;;6.78;;
52554;SDS011;38455;52.710;6.502;2023-05-10T05:10:36;12.05;;;7.00;;
52554;SDS011;38455;52.710;6.502;2023-05-10T05:13:01;11.02;;;6.13;;
52554;SDS011;38455;52.710;6.502;2023-05-10T05:15:27;13.73;;;7.18;;
52554;SDS011;38455;52.710;6.502;2023-05-10T05:17:53;12.40;;;7.40;;
52554;SDS011;38455;52.710;6.502;2023-05-10T05:20:18;11.10;;;7.10;;
52554;SDS011;38455;52.710;6.502;2023-05-10T05:22:44;13.27;;;7.13;;
52554;SDS011;38455;52.710;6.502;2023-05-10T05:25:10;12.77;;;7.45;;
52554;SDS011;38455;52.710;6.502;2023-05-10T05:27:36;12.27;;;7.55;;
52554;SDS011;38455;52.710;6.502;2023-05-10T05:30:02;12.88;;;7.60;;
52554;SDS011;38455;52.710;6.502;2023-05-10T05:32:29;14.57;;;8.18;;
52554;SDS011;38455;52.710;6.502;2023-05-10T05:34:55;10.23;;;7.28;;
52554;SDS011;38455;52.710;6.502;2023-05-10T05:37:21;11.82;;;7.63;;
52554;SDS011;38455;52.710;6.502;2023-05-10T05:39:47;15.07;;;8.07;;
52554;SDS011;38455;52.710;6.502;2023-05-10T05:42:13;14.27;;;7.93;;
52554;SDS011;38455;52.710;6.502;2023-05-10T05:44:40;13.85;;;8.38;;
52554;SDS011;38455;52.710;6.502;2023-05-10T05:47:06;17.60;;;7.68;;
52554;SDS011;38455;52.710;6.502;2023-05-10T05:49:32;15.70;;;8.27;;
52554;SDS011;38455;52.710;6.502;2023-05-10T05:52:01;14.75;;;8.95;;
52554;SDS011;38455;52.710;6.502;2023-05-10T05:54:28;16.05;;;8.43;;
52554;SDS011;38455;52.710;6.502;2023-05-10T05:56:54;14.57;;;8.13;;
52554;SDS011;38455;52.710;6.502;2023-05-10T05:59:23;12.57;;;7.07;;
52554;SDS011;38455;52.710;6.502;2023-05-10T06:01:49;17.20;;;7.72;;
52554;SDS011;38455;52.710;6.502;2023-05-10T06:04:15;13.40;;;7.97;;
52554;SDS011;38455;52.710;6.502;2023-05-10T06:06:41;14.23;;;8.10;;
52554;SDS011;38455;52.710;6.502;2023-05-10T06:09:07;12.82;;;8.70;;
52554;SDS011;38455;52.710;6.502;2023-05-10T06:11:33;13.65;;;8.00;;
52554;SDS011;38455;52.710;6.502;2023-05-10T06:13:59;14.13;;;8.02;;
52554;SDS011;38455;52.710;6.502;2023-05-10T06:16:25;12.82;;;7.43;;
52554;SDS011;38455;52.710;6.502;2023-05-10T06:18:51;12.88;;;7.93;;
52554;SDS011;38455;52.710;6.502;2023-05-10T06:21:16;12.18;;;7.43;;
52554;SDS011;38455;52.710;6.502;2023-05-10T06:23:42;14.38;;;7.50;;
52554;SDS011;38455;52.710;6.502;2023-05-10T06:26:09;16.15;;;7.88;;
52554;SDS011;38455;52.710;6.502;2023-05-10T06:28:34;13.63;;;7.82;;
52554;SDS011;38455;52.710;6.502;2023-05-10T06:31:03;14.40;;;7.43;;
52554;SDS011;38455;52.710;6.502;2023-05-10T06:33:29;13.15;;;7.13;;
52554;SDS011;38455;52.710;6.502;2023-05-10T06:35:55;11.93;;;8.13;;
52554;SDS011;38455;52.710;6.502;2023-05-10T06:38:21;12.30;;;7.70;;
52554;SDS011;38455;52.710;6.502;2023-05-10T06:40:46;12.23;;;7.43;;
52554;SDS011;38455;52.710;6.502;2023-05-10T06:43:12;16.27;;;7.25;;
52554;SDS011;38455;52.710;6.502;2023-05-10T06:45:38;11.90;;;6.80;;
52554;SDS011;38455;52.710;6.502;2023-05-10T06:48:03;10.40;;;6.40;;
52554;SDS011;38455;52.710;6.502;2023-05-10T06:50:29;12.93;;;6.90;;
52554;SDS011;38455;52.710;6.502;2023-05-10T06:52:55;11.23;;;6.43;;
52554;SDS011;38455;52.710;6.502;2023-05-10T06:55:21;11.43;;;6.75;;
52554;SDS011;38455;52.710;6.502;2023-05-10T06:57:46;13.38;;;7.20;;
52554;SDS011;38455;52.710;6.502;2023-05-10T07:00:13;10.52;;;6.53;;
52554;SDS011;38455;52.710;6.502;2023-05-10T07:02:39;10.75;;;6.13;;
52554;SDS011;38455;52.710;6.502;2023-05-10T07:05:05;8.48;;;5.47;;
52554;SDS011;38455;52.710;6.502;2023-05-10T07:07:31;9.55;;;5.35;;
52554;SDS011;38455;52.710;6.502;2023-05-10T07:09:57;12.15;;;6.85;;
52554;SDS011;38455;52.710;6.502;2023-05-10T07:12:23;11.13;;;5.82;;
52554;SDS011;38455;52.710;6.502;2023-05-10T07:14:49;13.48;;;5.90;;
52554;SDS011;38455;52.710;6.502;2023-05-10T07:17:14;12.43;;;6.50;;
52554;SDS011;38455;52.710;6.502;2023-05-10T07:19:40;12.25;;;6.75;;
52554;SDS011;38455;52.710;6.502;2023-05-10T07:22:06;11.55;;;6.78;;
52554;SDS011;38455;52.710;6.502;2023-05-10T07:24:32;13.45;;;6.47;;
52554;SDS011;38455;52.710;6.502;2023-05-10T07:26:58;10.10;;;6.25;;
52554;SDS011;38455;52.710;6.502;2023-05-10T07:29:24;12.98;;;6.63;;
52554;SDS011;38455;52.710;6.502;2023-05-10T07:31:49;10.55;;;6.30;;
52554;SDS011;38455;52.710;6.502;2023-05-10T07:34:15;11.48;;;6.30;;
52554;SDS011;38455;52.710;6.502;2023-05-10T07:36:41;9.02;;;6.18;;
52554;SDS011;38455;52.710;6.502;2023-05-10T07:39:06;9.55;;;6.43;;
52554;SDS011;38455;52.710;6.502;2023-05-10T07:41:32;10.25;;;6.13;;
52554;SDS011;38455;52.710;6.502;2023-05-10T07:43:58;10.30;;;5.65;;
52554;SDS011;38455;52.710;6.502;2023-05-10T07:46:23;11.50;;;6.40;;
52554;SDS011;38455;52.710;6.502;2023-05-10T07:48:49;11.32;;;6.20;;
52554;SDS011;38455;52.710;6.502;2023-05-10T07:51:15;8.88;;;5.25;;
52554;SDS011;38455;52.710;6.502;2023-05-10T07:53:40;8.48;;;5.25;;
52554;SDS011;38455;52.710;6.502;2023-05-10T07:56:25;9.02;;;5.40;;
52554;SDS011;38455;52.710;6.502;2023-05-10T07:59:00;7.13;;;4.57;;
52554;SDS011;38455;52.710;6.502;2023-05-10T08:01:32;8.38;;;5.38;;
52554;SDS011;38455;52.710;6.502;2023-05-10T08:03:59;11.68;;;6.35;;
52554;SDS011;38455;52.710;6.502;2023-05-10T08:06:25;7.43;;;4.53;;
52554;SDS011;38455;52.710;6.502;2023-05-10T08:08:54;7.80;;;5.03;;
52554;SDS011;38455;52.710;6.502;2023-05-10T08:11:20;6.60;;;4.45;;
52554;SDS011;38455;52.710;6.502;2023-05-10T08:13:47;7.72;;;3.70;;
52554;SDS011;38455;52.710;6.502;2023-05-10T08:16:13;7.35;;;3.60;;
52554;SDS011;38455;52.710;6.502;2023-05-10T08:18:39;4.70;;;2.85;;
52554;SDS011;38455;52.710;6.502;2023-05-10T08:21:05;6.00;;;2.92;;
52554;SDS011;38455;52.710;6.502;2023-05-10T08:23:31;5.07;;;2.83;;
52554;SDS011;38455;52.710;6.502;2023-05-10T08:25:57;5.65;;;3.13;;
52554;SDS011;38455;52.710;6.502;2023-05-10T08:28:23;4.78;;;3.03;;
52554;SDS011;38455;52.710;6.502;2023-05-10T08:30:49;4.22;;;2.67;;
52554;SDS011;38455;52.710;6.502;2023-05-10T08:33:15;5.72;;;3.33;;
52554;SDS011;38455;52.710;6.502;2023-05-10T08:35:42;5.75;;;3.15;;
52554;SDS011;38455;52.710;6.502;2023-05-10T08:38:08;4.55;;;3.00;;
52554;SDS011;38455;52.710;6.502;2023-05-10T08:40:33;6.53;;;3.15;;
52554;SDS011;38455;52.710;6.502;2023-05-10T08:43:05;8.20;;;2.83;;
52554;SDS011;38455;52.710;6.502;2023-05-10T08:45:36;3.08;;;2.30;;
52554;SDS011;38455;52.710;6.502;2023-05-10T08:48:04;6.55;;;3.13;;
52554;SDS011;38455;52.710;6.502;2023-05-10T08:50:31;6.40;;;2.92;;
52554;SDS011;38455;52.710;6.502;2023-05-10T08:52:59;3.63;;;2.17;;
52554;SDS011;38455;52.710;6.502;2023-05-10T08:55:28;3.88;;;2.53;;
52554;SDS011;38455;52.710;6.502;2023-05-10T08:57:54;4.30;;;2.75;;
52554;SDS011;38455;52.710;6.502;2023-05-10T09:00:20;6.13;;;2.92;;
52554;SDS011;38455;52.710;6.502;2023-05-10T09:02:49;6.55;;;2.92;;
52554;SDS011;38455;52.710;6.502;2023-05-10T09:05:15;6.40;;;3.10;;
52554;SDS011;38455;52.710;6.502;2023-05-10T09:07:42;5.07;;;2.75;;
52554;SDS011;38455;52.710;6.502;2023-05-10T09:10:08;5.00;;;2.30;;
52554;SDS011;38455;52.710;6.502;2023-05-10T09:12:35;4.35;;;2.30;;
52554;SDS011;38455;52.710;6.502;2023-05-10T09:15:01;4.82;;;2.90;;
52554;SDS011;38455;52.710;6.502;2023-05-10T09:17:28;4.13;;;2.92;;
52554;SDS011;38455;52.710;6.502;2023-05-10T09:19:58;3.85;;;2.75;;
52554;SDS011;38455;52.710;6.502;2023-05-10T09:22:24;5.97;;;3.20;;
52554;SDS011;38455;52.710;6.502;2023-05-10T09:27:35;5.32;;;3.10;;
52554;SDS011;38455;52.710;6.502;2023-05-10T09:30:01;5.20;;;3.40;;
52554;SDS011;38455;52.710;6.502;2023-05-10T09:32:40;8.95;;;3.28;;
52554;SDS011;38455;52.710;6.502;2023-05-10T09:35:10;7.72;;;4.65;;
52554;SDS011;38455;52.710;6.502;2023-05-10T09:37:36;6.60;;;4.15;;
52554;SDS011;38455;52.710;6.502;2023-05-10T09:40:15;5.80;;;4.43;;
52554;SDS011;38455;52.710;6.502;2023-05-10T09:42:52;7.38;;;5.30;;
52554;SDS011;38455;52.710;6.502;2023-05-10T09:45:24;7.65;;;4.70;;
52554;SDS011;38455;52.710;6.502;2023-05-10T09:47:52;10.63;;;4.63;;
52554;SDS011;38455;52.710;6.502;2023-05-10T09:50:18;7.10;;;4.63;;
52554;SDS011;38455;52.710;6.502;2023-05-10T09:55:12;6.88;;;5.38;;
52554;SDS011;38455;52.710;6.502;2023-05-10T09:57:38;8.13;;;5.50;;
52554;SDS011;38455;52.710;6.502;2023-05-10T10:00:04;7.03;;;5.00;;
52554;SDS011;38455;52.710;6.502;2023-05-10T10:02:31;7.93;;;5.18;;
52554;SDS011;38455;52.710;6.502;2023-05-10T10:04:56;7.20;;;4.95;;
52554;SDS011;38455;52.710;6.502;2023-05-10T10:07:23;7.78;;;5.45;;
52554;SDS011;38455;52.710;6.502;2023-05-10T10:09:52;8.05;;;5.88;;
52554;SDS011;38455;52.710;6.502;2023-05-10T10:12:18;8.10;;;5.95;;
52554;SDS011;38455;52.710;6.502;2023-05-10T10:14:46;8.93;;;6.13;;
52554;SDS011;38455;52.710;6.502;2023-05-10T10:17:13;9.43;;;6.40;;
52554;SDS011;38455;52.710;6.502;2023-05-10T10:19:39;11.50;;;6.75;;
52554;SDS011;38455;52.710;6.502;2023-05-10T10:22:06;9.07;;;6.85;;
52554;SDS011;38455;52.710;6.502;2023-05-10T10:24:32;9.98;;;7.25;;
52554;SDS011;38455;52.710;6.502;2023-05-10T10:27:20;9.80;;;6.65;;
52554;SDS011;38455;52.710;6.502;2023-05-10T10:29:52;9.82;;;6.20;;
52554;SDS011;38455;52.710;6.502;2023-05-10T10:35:01;11.13;;;7.05;;
52554;SDS011;38455;52.710;6.502;2023-05-10T10:37:43;10.25;;;6.93;;
52554;SDS011;38455;52.710;6.502;2023-05-10T10:43:21;9.07;;;6.60;;
52554;SDS011;38455;52.710;6.502;2023-05-10T10:48:38;9.52;;;5.85;;
52554;SDS011;38455;52.710;6.502;2023-05-10T10:51:04;9.82;;;6.65;;
52554;SDS011;38455;52.710;6.502;2023-05-10T10:53:30;10.55;;;6.57;;
52554;SDS011;38455;52.710;6.502;2023-05-10T10:56:05;9.77;;;6.25;;
52554;SDS011;38455;52.710;6.502;2023-05-10T10:58:34;8.32;;;5.97;;
52554;SDS011;38455;52.710;6.502;2023-05-10T11:01:16;9.57;;;5.93;;
52554;SDS011;38455;52.710;6.502;2023-05-10T11:06:44;9.90;;;6.88;;
52554;SDS011;38455;52.710;6.502;2023-05-10T11:09:11;8.85;;;5.95;;
52554;SDS011;38455;52.710;6.502;2023-05-10T11:11:48;8.80;;;6.88;;
52554;SDS011;38455;52.710;6.502;2023-05-10T11:14:17;11.43;;;6.85;;
52554;SDS011;38455;52.710;6.502;2023-05-10T11:16:46;8.38;;;5.05;;
52554;SDS011;38455;52.710;6.502;2023-05-10T11:19:12;9.10;;;5.57;;
52554;SDS011;38455;52.710;6.502;2023-05-10T11:21:50;9.73;;;5.70;;
52554;SDS011;38455;52.710;6.502;2023-05-10T11:24:20;10.43;;;6.03;;
52554;SDS011;38455;52.710;6.502;2023-05-10T11:26:49;8.00;;;5.95;;
52554;SDS011;38455;52.710;6.502;2023-05-10T11:29:16;9.68;;;6.93;;
52554;SDS011;38455;52.710;6.502;2023-05-10T11:31:45;7.13;;;5.10;;
52554;SDS011;38455;52.710;6.502;2023-05-10T11:34:12;9.77;;;6.55;;
52554;SDS011;38455;52.710;6.502;2023-05-10T11:36:51;8.80;;;6.85;;
52554;SDS011;38455;52.710;6.502;2023-05-10T11:39:18;9.52;;;6.95;;
52554;SDS011;38455;52.710;6.502;2023-05-10T11:41:46;12.38;;;7.97;;
52554;SDS011;38455;52.710;6.502;2023-05-10T11:44:13;8.40;;;6.05;;
52554;SDS011;38455;52.710;6.502;2023-05-10T11:46:39;9.40;;;6.68;;
52554;SDS011;38455;52.710;6.502;2023-05-10T11:49:05;10.45;;;6.68;;
52554;SDS011;38455;52.710;6.502;2023-05-10T11:51:33;9.00;;;6.60;;
52554;SDS011;38455;52.710;6.502;2023-05-10T11:54:01;10.25;;;7.88;;
52554;SDS011;38455;52.710;6.502;2023-05-10T11:56:32;12.50;;;7.43;;
52554;SDS011;38455;52.710;6.502;2023-05-10T11:58:58;9.70;;;6.38;;
52554;SDS011;38455;52.710;6.502;2023-05-10T12:01:25;9.07;;;6.85;;
52554;SDS011;38455;52.710;6.502;2023-05-10T12:03:52;12.15;;;7.50;;
52554;SDS011;38455;52.710;6.502;2023-05-10T12:06:19;13.52;;;7.78;;
52554;SDS011;38455;52.710;6.502;2023-05-10T12:08:46;8.55;;;6.15;;
52554;SDS011;38455;52.710;6.502;2023-05-10T12:11:13;8.32;;;6.57;;
52554;SDS011;38455;52.710;6.502;2023-05-10T12:13:41;7.65;;;5.25;;
52554;SDS011;38455;52.710;6.502;2023-05-10T12:16:13;9.65;;;5.85;;
52554;SDS011;38455;52.710;6.502;2023-05-10T12:18:43;9.65;;;5.80;;
52554;SDS011;38455;52.710;6.502;2023-05-10T12:21:13;8.23;;;5.90;;
52554;SDS011;38455;52.710;6.502;2023-05-10T12:23:40;8.02;;;4.88;;
52554;SDS011;38455;52.710;6.502;2023-05-10T12:26:08;4.93;;;3.70;;
52554;SDS011;38455;52.710;6.502;2023-05-10T12:28:36;6.65;;;4.35;;
52554;SDS011;38455;52.710;6.502;2023-05-10T12:31:03;8.43;;;4.60;;
52554;SDS011;38455;52.710;6.502;2023-05-10T12:33:42;9.52;;;5.53;;
52554;SDS011;38455;52.710;6.502;2023-05-10T12:36:09;9.50;;;6.10;;
52554;SDS011;38455;52.710;6.502;2023-05-10T12:38:37;7.88;;;5.68;;
52554;SDS011;38455;52.710;6.502;2023-05-10T12:41:07;10.55;;;6.25;;
52554;SDS011;38455;52.710;6.502;2023-05-10T12:43:34;10.18;;;6.75;;
52554;SDS011;38455;52.710;6.502;2023-05-10T12:46:04;8.25;;;6.00;;
52554;SDS011;38455;52.710;6.502;2023-05-10T12:48:34;10.30;;;7.30;;
52554;SDS011;38455;52.710;6.502;2023-05-10T12:51:00;8.55;;;6.00;;
52554;SDS011;38455;52.710;6.502;2023-05-10T12:53:26;10.95;;;8.00;;
52554;SDS011;38455;52.710;6.502;2023-05-10T12:55:52;13.77;;;8.80;;
52554;SDS011;38455;52.710;6.502;2023-05-10T12:58:18;12.85;;;7.43;;
52554;SDS011;38455;52.710;6.502;2023-05-10T13:00:45;9.27;;;7.03;;
52554;SDS011;38455;52.710;6.502;2023-05-10T13:03:10;10.13;;;7.65;;
52554;SDS011;38455;52.710;6.502;2023-05-10T13:05:36;10.35;;;7.40;;
52554;SDS011;38455;52.710;6.502;2023-05-10T13:08:02;11.05;;;6.70;;
52554;SDS011;38455;52.710;6.502;2023-05-10T13:10:30;11.90;;;7.85;;
52554;SDS011;38455;52.710;6.502;2023-05-10T13:12:57;9.13;;;7.25;;
52554;SDS011;38455;52.710;6.502;2023-05-10T13:15:23;9.75;;;7.30;;
52554;SDS011;38455;52.710;6.502;2023-05-10T13:17:48;10.07;;;7.50;;
52554;SDS011;38455;52.710;6.502;2023-05-10T13:20:14;9.32;;;5.65;;
52554;SDS011;38455;52.710;6.502;2023-05-10T13:22:40;8.55;;;5.80;;
52554;SDS011;38455;52.710;6.502;2023-05-10T13:25:07;8.45;;;5.47;;
52554;SDS011;38455;52.710;6.502;2023-05-10T13:27:33;9.77;;;6.10;;
52554;SDS011;38455;52.710;6.502;2023-05-10T13:29:58;13.05;;;6.50;;
52554;SDS011;38455;52.710;6.502;2023-05-10T13:32:24;11.40;;;7.75;;
52554;SDS011;38455;52.710;6.502;2023-05-10T13:34:50;16.02;;;8.73;;
52554;SDS011;38455;52.710;6.502;2023-05-10T13:37:16;12.55;;;8.20;;
52554;SDS011;38455;52.710;6.502;2023-05-10T13:39:42;12.85;;;8.32;;
52554;SDS011;38455;52.710;6.502;2023-05-10T13:42:08;13.13;;;8.32;;
52554;SDS011;38455;52.710;6.502;2023-05-10T13:44:33;8.50;;;5.35;;
52554;SDS011;38455;52.710;6.502;2023-05-10T13:46:59;7.78;;;4.70;;
52554;SDS011;38455;52.710;6.502;2023-05-10T13:49:25;9.23;;;5.20;;
52554;SDS011;38455;52.710;6.502;2023-05-10T13:51:50;7.15;;;5.38;;
52554;SDS011;38455;52.710;6.502;2023-05-10T13:54:17;10.23;;;5.93;;
52554;SDS011;38455;52.710;6.502;2023-05-10T13:56:44;9.00;;;5.72;;
52554;SDS011;38455;52.710;6.502;2023-05-10T13:59:12;8.98;;;5.97;;
52554;SDS011;38455;52.710;6.502;2023-05-10T14:01:39;9.25;;;5.55;;
52554;SDS011;38455;52.710;6.502;2023-05-10T14:04:05;8.73;;;5.45;;
52554;SDS011;38455;52.710;6.502;2023-05-10T14:06:32;7.28;;;5.20;;
52554;SDS011;38455;52.710;6.502;2023-05-10T14:08:58;8.82;;;5.47;;
52554;SDS011;38455;52.710;6.502;2023-05-10T14:11:23;10.15;;;6.60;;
52554;SDS011;38455;52.710;6.502;2023-05-10T14:13:49;9.75;;;6.57;;
52554;SDS011;38455;52.710;6.502;2023-05-10T14:16:15;10.13;;;6.68;;
52554;SDS011;38455;52.710;6.502;2023-05-10T14:18:40;11.57;;;6.60;;
52554;SDS011;38455;52.710;6.502;2023-05-10T14:21:06;11.40;;;7.28;;
52554;SDS011;38455;52.710;6.502;2023-05-10T14:23:32;8.82;;;6.70;;
52554;SDS011;38455;52.710;6.502;2023-05-10T14:25:57;11.63;;;7.13;;
52554;SDS011;38455;52.710;6.502;2023-05-10T14:28:23;10.23;;;6.40;;
52554;SDS011;38455;52.710;6.502;2023-05-10T14:30:50;17.63;;;7.63;;
52554;SDS011;38455;52.710;6.502;2023-05-10T14:33:16;12.85;;;7.78;;
52554;SDS011;38455;52.710;6.502;2023-05-10T14:35:42;12.68;;;7.95;;
52554;SDS011;38455;52.710;6.502;2023-05-10T14:38:07;13.25;;;7.30;;
52554;SDS011;38455;52.710;6.502;2023-05-10T14:40:33;9.63;;;5.97;;
52554;SDS011;38455;52.710;6.502;2023-05-10T14:42:59;9.70;;;6.18;;
52554;SDS011;38455;52.710;6.502;2023-05-10T14:45:25;12.38;;;7.28;;
52554;SDS011;38455;52.710;6.502;2023-05-10T14:47:51;11.45;;;7.18;;
52554;SDS011;38455;52.710;6.502;2023-05-10T14:50:16;10.98;;;7.60;;
52554;SDS011;38455;52.710;6.502;2023-05-10T14:52:43;11.68;;;8.27;;
52554;SDS011;38455;52.710;6.502;2023-05-10T14:55:09;13.02;;;7.50;;
52554;SDS011;38455;52.710;6.502;2023-05-10T14:57:35;15.38;;;7.90;;
52554;SDS011;38455;52.710;6.502;2023-05-10T15:00:01;12.38;;;7.35;;
52554;SDS011;38455;52.710;6.502;2023-05-10T15:02:27;12.30;;;7.82;;
52554;SDS011;38455;52.710;6.502;2023-05-10T15:04:53;14.05;;;8.07;;
52554;SDS011;38455;52.710;6.502;2023-05-10T15:07:18;13.02;;;8.68;;
52554;SDS011;38455;52.710;6.502;2023-05-10T15:09:44;12.68;;;7.78;;
52554;SDS011;38455;52.710;6.502;2023-05-10T15:12:10;13.07;;;7.28;;
52554;SDS011;38455;52.710;6.502;2023-05-10T15:14:36;11.85;;;8.07;;
52554;SDS011;38455;52.710;6.502;2023-05-10T15:17:02;12.07;;;8.07;;
52554;SDS011;38455;52.710;6.502;2023-05-10T15:19:28;13.50;;;8.43;;